sensor_id;sensor_type;location;lat;lon;timestamp;P1;durP1;ratioP1;P2;durP2;ratioP2
15567;SDS011;7885;42.596;23.044;2022-10-31T00:00:55;22.23;;;10.67;;
15567;SDS011;7885;42.596;23.044;2022-10-31T00:03:22;26.23;;;10.23;;
15567;SDS011;7885;42.596;23.044;2022-10-31T00:05:49;28.13;;;17.43;;
15567;SDS011;7885;42.596;23.044;2022-10-31T00:08:16;36.87;;;18.90;;
15567;SDS011;7885;42.596;23.044;2022-10-31T00:10:45;47.47;;;27.57;;
15567;SDS011;7885;42.596;23.044;2022-10-31T00:13:13;37.73;;;21.03;;
15567;SDS011;7885;42.596;23.044;2022-10-31T00:15:40;16.00;;;8.20;;
15567;SDS011;7885;42.596;23.044;2022-10-31T00:18:07;19.33;;;9.83;;
15567;SDS011;7885;42.596;23.044;2022-10-31T00:20:35;19.87;;;10.90;;
15567;SDS011;7885;42.596;23.044;2022-10-31T00:23:03;25.47;;;14.57;;
15567;SDS011;7885;42.596;23.044;2022-10-31T00:25:32;21.97;;;13.20;;
15567;SDS011;7885;42.596;23.044;2022-10-31T00:28:01;11.83;;;8.07;;
15567;SDS011;7885;42.596;23.044;2022-10-31T00:30:29;32.20;;;14.33;;
15567;SDS011;7885;42.596;23.044;2022-10-31T00:32:55;29.43;;;13.27;;
15567;SDS011;7885;42.596;23.044;2022-10-31T00:35:22;26.23;;;12.70;;
15567;SDS011;7885;42.596;23.044;2022-10-31T00:37:49;35.30;;;12.97;;
15567;SDS011;7885;42.596;23.044;2022-10-31T00:40:16;25.47;;;12.33;;
15567;SDS011;7885;42.596;23.044;2022-10-31T00:42:42;36.23;;;14.17;;
15567;SDS011;7885;42.596;23.044;2022-10-31T00:45:11;34.60;;;14.03;;
15567;SDS011;7885;42.596;23.044;2022-10-31T00:47:38;32.80;;;12.73;;
15567;SDS011;7885;42.596;23.044;2022-10-31T00:50:05;32.27;;;14.13;;
15567;SDS011;7885;42.596;23.044;2022-10-31T00:52:33;36.90;;;12.90;;
15567;SDS011;7885;42.596;23.044;2022-10-31T00:54:59;29.70;;;13.37;;
15567;SDS011;7885;42.596;23.044;2022-10-31T00:57:26;29.60;;;12.73;;
15567;SDS011;7885;42.596;23.044;2022-10-31T00:59:53;36.67;;;15.53;;
15567;SDS011;7885;42.596;23.044;2022-10-31T01:02:21;28.17;;;14.80;;
15567;SDS011;7885;42.596;23.044;2022-10-31T01:04:48;31.60;;;15.20;;
15567;SDS011;7885;42.596;23.044;2022-10-31T01:07:14;31.60;;;15.90;;
15567;SDS011;7885;42.596;23.044;2022-10-31T01:09:41;33.33;;;17.00;;
15567;SDS011;7885;42.596;23.044;2022-10-31T01:12:08;30.03;;;15.17;;
15567;SDS011;7885;42.596;23.044;2022-10-31T01:14:35;32.40;;;14.70;;
15567;SDS011;7885;42.596;23.044;2022-10-31T01:17:02;30.60;;;13.73;;
15567;SDS011;7885;42.596;23.044;2022-10-31T01:26:14;25.87;;;13.47;;
15567;SDS011;7885;42.596;23.044;2022-10-31T01:28:44;29.07;;;13.43;;
15567;SDS011;7885;42.596;23.044;2022-10-31T01:31:12;24.57;;;14.50;;
15567;SDS011;7885;42.596;23.044;2022-10-31T01:33:39;33.20;;;15.40;;
15567;SDS011;7885;42.596;23.044;2022-10-31T01:39:35;31.53;;;15.97;;
15567;SDS011;7885;42.596;23.044;2022-10-31T01:42:03;27.47;;;12.60;;
15567;SDS011;7885;42.596;23.044;2022-10-31T01:47:21;28.30;;;15.10;;
15567;SDS011;7885;42.596;23.044;2022-10-31T01:49:57;24.47;;;13.53;;
15567;SDS011;7885;42.596;23.044;2022-10-31T01:52:27;27.00;;;12.83;;
15567;SDS011;7885;42.596;23.044;2022-10-31T01:54:58;19.87;;;11.43;;
15567;SDS011;7885;42.596;23.044;2022-10-31T01:57:29;23.13;;;11.13;;
15567;SDS011;7885;42.596;23.044;2022-10-31T02:00:02;19.23;;;10.00;;
15567;SDS011;7885;42.596;23.044;2022-10-31T02:02:31;17.23;;;11.03;;
15567;SDS011;7885;42.596;23.044;2022-10-31T02:04:58;24.77;;;12.27;;
15567;SDS011;7885;42.596;23.044;2022-10-31T02:07:30;24.80;;;11.33;;
15567;SDS011;7885;42.596;23.044;2022-10-31T02:10:03;19.27;;;10.67;;
15567;SDS011;7885;42.596;23.044;2022-10-31T02:12:31;21.07;;;10.53;;
15567;SDS011;7885;42.596;23.044;2022-10-31T02:15:01;20.53;;;11.37;;
15567;SDS011;7885;42.596;23.044;2022-10-31T02:17:28;16.90;;;10.93;;
15567;SDS011;7885;42.596;23.044;2022-10-31T02:19:59;19.87;;;11.33;;
15567;SDS011;7885;42.596;23.044;2022-10-31T02:22:38;17.47;;;10.13;;
15567;SDS011;7885;42.596;23.044;2022-10-31T02:28:09;17.60;;;10.60;;
15567;SDS011;7885;42.596;23.044;2022-10-31T02:31:05;22.37;;;13.07;;
15567;SDS011;7885;42.596;23.044;2022-10-31T02:33:45;19.10;;;10.40;;
15567;SDS011;7885;42.596;23.044;2022-10-31T02:36:19;20.90;;;12.57;;
15567;SDS011;7885;42.596;23.044;2022-10-31T02:38:56;24.43;;;15.23;;
15567;SDS011;7885;42.596;23.044;2022-10-31T02:41:32;24.03;;;13.07;;
15567;SDS011;7885;42.596;23.044;2022-10-31T02:44:06;16.23;;;9.97;;
15567;SDS011;7885;42.596;23.044;2022-10-31T02:46:39;18.00;;;11.07;;
15567;SDS011;7885;42.596;23.044;2022-10-31T02:49:11;12.77;;;7.83;;
15567;SDS011;7885;42.596;23.044;2022-10-31T02:51:47;15.93;;;8.60;;
15567;SDS011;7885;42.596;23.044;2022-10-31T02:54:18;19.93;;;8.63;;
15567;SDS011;7885;42.596;23.044;2022-10-31T02:56:46;17.83;;;8.43;;
15567;SDS011;7885;42.596;23.044;2022-10-31T02:59:17;14.50;;;8.37;;
15567;SDS011;7885;42.596;23.044;2022-10-31T03:01:56;19.10;;;9.20;;
15567;SDS011;7885;42.596;23.044;2022-10-31T03:04:37;16.27;;;9.17;;
15567;SDS011;7885;42.596;23.044;2022-10-31T03:07:17;35.20;;;31.87;;
15567;SDS011;7885;42.596;23.044;2022-10-31T03:09:52;19.27;;;11.97;;
15567;SDS011;7885;42.596;23.044;2022-10-31T03:12:26;14.83;;;10.20;;
15567;SDS011;7885;42.596;23.044;2022-10-31T03:14:58;25.97;;;12.70;;
15567;SDS011;7885;42.596;23.044;2022-10-31T03:17:37;17.63;;;10.73;;
15567;SDS011;7885;42.596;23.044;2022-10-31T03:20:09;17.63;;;10.07;;
15567;SDS011;7885;42.596;23.044;2022-10-31T03:22:37;15.40;;;9.23;;
15567;SDS011;7885;42.596;23.044;2022-10-31T03:25:07;22.37;;;7.90;;
15567;SDS011;7885;42.596;23.044;2022-10-31T03:27:35;15.17;;;9.60;;
15567;SDS011;7885;42.596;23.044;2022-10-31T03:30:05;18.73;;;10.20;;
15567;SDS011;7885;42.596;23.044;2022-10-31T03:32:34;16.43;;;10.13;;
15567;SDS011;7885;42.596;23.044;2022-10-31T03:35:07;18.20;;;10.50;;
15567;SDS011;7885;42.596;23.044;2022-10-31T03:37:36;22.03;;;10.50;;
15567;SDS011;7885;42.596;23.044;2022-10-31T03:40:05;17.33;;;10.30;;
15567;SDS011;7885;42.596;23.044;2022-10-31T03:42:34;20.23;;;9.80;;
15567;SDS011;7885;42.596;23.044;2022-10-31T03:45:06;16.20;;;9.13;;
15567;SDS011;7885;42.596;23.044;2022-10-31T03:47:38;18.63;;;9.77;;
15567;SDS011;7885;42.596;23.044;2022-10-31T03:50:08;18.90;;;10.53;;
15567;SDS011;7885;42.596;23.044;2022-10-31T03:52:37;19.47;;;9.47;;
15567;SDS011;7885;42.596;23.044;2022-10-31T03:55:10;19.67;;;9.50;;
15567;SDS011;7885;42.596;23.044;2022-10-31T03:57:43;20.20;;;11.13;;
15567;SDS011;7885;42.596;23.044;2022-10-31T04:00:15;21.73;;;11.30;;
15567;SDS011;7885;42.596;23.044;2022-10-31T04:02:46;20.70;;;10.60;;
15567;SDS011;7885;42.596;23.044;2022-10-31T04:05:16;22.40;;;12.23;;
15567;SDS011;7885;42.596;23.044;2022-10-31T04:07:45;24.23;;;16.13;;
15567;SDS011;7885;42.596;23.044;2022-10-31T04:10:14;24.33;;;11.90;;
15567;SDS011;7885;42.596;23.044;2022-10-31T04:12:42;25.77;;;11.90;;
15567;SDS011;7885;42.596;23.044;2022-10-31T04:15:11;21.53;;;11.70;;
15567;SDS011;7885;42.596;23.044;2022-10-31T04:17:40;23.47;;;11.40;;
15567;SDS011;7885;42.596;23.044;2022-10-31T04:20:12;21.10;;;11.33;;
15567;SDS011;7885;42.596;23.044;2022-10-31T04:22:42;22.17;;;11.70;;
15567;SDS011;7885;42.596;23.044;2022-10-31T04:25:08;18.17;;;10.47;;
15567;SDS011;7885;42.596;23.044;2022-10-31T04:27:35;17.57;;;10.87;;
15567;SDS011;7885;42.596;23.044;2022-10-31T04:30:02;14.67;;;10.93;;
15567;SDS011;7885;42.596;23.044;2022-10-31T04:32:29;18.63;;;9.93;;
15567;SDS011;7885;42.596;23.044;2022-10-31T04:34:56;23.13;;;11.93;;
15567;SDS011;7885;42.596;23.044;2022-10-31T04:37:24;18.23;;;11.47;;
15567;SDS011;7885;42.596;23.044;2022-10-31T04:39:51;20.30;;;12.40;;
15567;SDS011;7885;42.596;23.044;2022-10-31T04:42:17;20.07;;;11.23;;
15567;SDS011;7885;42.596;23.044;2022-10-31T04:44:44;19.60;;;11.03;;
15567;SDS011;7885;42.596;23.044;2022-10-31T04:47:11;18.57;;;11.83;;
15567;SDS011;7885;42.596;23.044;2022-10-31T04:49:38;23.43;;;18.13;;
15567;SDS011;7885;42.596;23.044;2022-10-31T04:52:04;24.10;;;14.40;;
15567;SDS011;7885;42.596;23.044;2022-10-31T04:54:34;16.87;;;10.40;;
15567;SDS011;7885;42.596;23.044;2022-10-31T04:57:01;19.03;;;11.60;;
15567;SDS011;7885;42.596;23.044;2022-10-31T04:59:28;19.90;;;11.50;;
15567;SDS011;7885;42.596;23.044;2022-10-31T05:01:54;16.20;;;10.47;;
15567;SDS011;7885;42.596;23.044;2022-10-31T05:04:21;20.33;;;11.57;;
15567;SDS011;7885;42.596;23.044;2022-10-31T05:06:48;20.13;;;12.03;;
15567;SDS011;7885;42.596;23.044;2022-10-31T05:09:15;24.73;;;12.93;;
15567;SDS011;7885;42.596;23.044;2022-10-31T05:11:43;23.93;;;12.63;;
15567;SDS011;7885;42.596;23.044;2022-10-31T05:14:10;23.73;;;17.57;;
15567;SDS011;7885;42.596;23.044;2022-10-31T05:16:36;21.03;;;12.83;;
15567;SDS011;7885;42.596;23.044;2022-10-31T05:19:03;28.03;;;19.93;;
15567;SDS011;7885;42.596;23.044;2022-10-31T05:21:30;21.27;;;14.10;;
15567;SDS011;7885;42.596;23.044;2022-10-31T05:23:57;22.10;;;12.27;;
15567;SDS011;7885;42.596;23.044;2022-10-31T05:26:24;21.73;;;13.67;;
15567;SDS011;7885;42.596;23.044;2022-10-31T05:28:52;21.17;;;13.27;;
15567;SDS011;7885;42.596;23.044;2022-10-31T05:31:19;21.13;;;13.13;;
15567;SDS011;7885;42.596;23.044;2022-10-31T05:33:45;20.17;;;13.00;;
15567;SDS011;7885;42.596;23.044;2022-10-31T05:36:12;17.83;;;13.10;;
15567;SDS011;7885;42.596;23.044;2022-10-31T05:38:39;22.20;;;14.47;;
15567;SDS011;7885;42.596;23.044;2022-10-31T05:41:06;18.90;;;13.57;;
15567;SDS011;7885;42.596;23.044;2022-10-31T05:43:32;21.00;;;14.03;;
15567;SDS011;7885;42.596;23.044;2022-10-31T05:46:01;20.00;;;13.33;;
15567;SDS011;7885;42.596;23.044;2022-10-31T05:48:27;25.40;;;14.37;;
15567;SDS011;7885;42.596;23.044;2022-10-31T05:50:54;28.73;;;14.40;;
15567;SDS011;7885;42.596;23.044;2022-10-31T05:53:21;32.07;;;16.43;;
15567;SDS011;7885;42.596;23.044;2022-10-31T05:55:48;30.77;;;14.70;;
15567;SDS011;7885;42.596;23.044;2022-10-31T05:58:15;25.73;;;14.60;;
15567;SDS011;7885;42.596;23.044;2022-10-31T06:00:42;21.80;;;13.20;;
15567;SDS011;7885;42.596;23.044;2022-10-31T06:03:10;27.93;;;16.17;;
15567;SDS011;7885;42.596;23.044;2022-10-31T06:05:37;26.77;;;16.53;;
15567;SDS011;7885;42.596;23.044;2022-10-31T06:08:03;32.60;;;21.17;;
15567;SDS011;7885;42.596;23.044;2022-10-31T06:10:31;21.93;;;14.67;;
15567;SDS011;7885;42.596;23.044;2022-10-31T06:12:57;21.67;;;14.70;;
15567;SDS011;7885;42.596;23.044;2022-10-31T06:15:26;25.87;;;15.10;;
15567;SDS011;7885;42.596;23.044;2022-10-31T06:17:59;23.37;;;14.17;;
15567;SDS011;7885;42.596;23.044;2022-10-31T06:20:28;21.87;;;12.93;;
15567;SDS011;7885;42.596;23.044;2022-10-31T06:22:55;23.43;;;13.10;;
15567;SDS011;7885;42.596;23.044;2022-10-31T06:25:22;21.63;;;13.43;;
15567;SDS011;7885;42.596;23.044;2022-10-31T06:27:49;26.33;;;14.50;;
15567;SDS011;7885;42.596;23.044;2022-10-31T06:30:16;26.70;;;14.02;;
15567;SDS011;7885;42.596;23.044;2022-10-31T06:32:43;21.85;;;12.68;;
15567;SDS011;7885;42.596;23.044;2022-10-31T06:35:10;24.35;;;11.68;;
15567;SDS011;7885;42.596;23.044;2022-10-31T06:37:38;20.55;;;11.50;;
15567;SDS011;7885;42.596;23.044;2022-10-31T06:40:05;18.70;;;9.68;;
15567;SDS011;7885;42.596;23.044;2022-10-31T06:42:32;18.60;;;10.90;;
15567;SDS011;7885;42.596;23.044;2022-10-31T06:44:59;20.58;;;11.75;;
15567;SDS011;7885;42.596;23.044;2022-10-31T06:47:26;22.70;;;12.85;;
15567;SDS011;7885;42.596;23.044;2022-10-31T06:49:53;21.13;;;12.40;;
15567;SDS011;7885;42.596;23.044;2022-10-31T06:52:19;26.02;;;12.55;;
15567;SDS011;7885;42.596;23.044;2022-10-31T06:54:50;17.90;;;10.32;;
15567;SDS011;7885;42.596;23.044;2022-10-31T06:57:16;19.05;;;11.00;;
15567;SDS011;7885;42.596;23.044;2022-10-31T06:59:43;22.23;;;12.88;;
15567;SDS011;7885;42.596;23.044;2022-10-31T07:02:10;18.15;;;12.05;;
15567;SDS011;7885;42.596;23.044;2022-10-31T07:04:37;20.45;;;10.95;;
15567;SDS011;7885;42.596;23.044;2022-10-31T07:07:04;19.50;;;11.23;;
15567;SDS011;7885;42.596;23.044;2022-10-31T07:09:30;17.05;;;11.27;;
15567;SDS011;7885;42.596;23.044;2022-10-31T07:11:59;17.95;;;11.02;;
15567;SDS011;7885;42.596;23.044;2022-10-31T07:14:25;14.98;;;10.75;;
15567;SDS011;7885;42.596;23.044;2022-10-31T07:16:52;22.80;;;10.52;;
15567;SDS011;7885;42.596;23.044;2022-10-31T07:19:19;17.88;;;9.77;;
15567;SDS011;7885;42.596;23.044;2022-10-31T07:21:45;13.00;;;9.10;;
15567;SDS011;7885;42.596;23.044;2022-10-31T07:24:12;14.57;;;9.40;;
15567;SDS011;7885;42.596;23.044;2022-10-31T07:26:39;16.17;;;10.00;;
15567;SDS011;7885;42.596;23.044;2022-10-31T07:29:08;18.80;;;12.20;;
15567;SDS011;7885;42.596;23.044;2022-10-31T07:31:35;31.10;;;22.40;;
15567;SDS011;7885;42.596;23.044;2022-10-31T07:34:02;25.73;;;18.08;;
15567;SDS011;7885;42.596;23.044;2022-10-31T07:36:29;18.40;;;14.02;;
15567;SDS011;7885;42.596;23.044;2022-10-31T07:38:55;12.77;;;11.43;;
15567;SDS011;7885;42.596;23.044;2022-10-31T07:41:23;13.02;;;10.32;;
15567;SDS011;7885;42.596;23.044;2022-10-31T07:43:50;8.15;;;6.80;;
15567;SDS011;7885;42.596;23.044;2022-10-31T07:46:18;7.78;;;6.43;;
15567;SDS011;7885;42.596;23.044;2022-10-31T07:48:45;12.18;;;10.43;;
15567;SDS011;7885;42.596;23.044;2022-10-31T07:51:11;10.05;;;8.35;;
15567;SDS011;7885;42.596;23.044;2022-10-31T07:53:38;11.27;;;9.73;;
15567;SDS011;7885;42.596;23.044;2022-10-31T07:56:06;9.98;;;7.53;;
15567;SDS011;7885;42.596;23.044;2022-10-31T07:58:33;12.25;;;9.10;;
15567;SDS011;7885;42.596;23.044;2022-10-31T08:01:00;10.35;;;9.18;;
15567;SDS011;7885;42.596;23.044;2022-10-31T08:10:12;9.43;;;7.88;;
15567;SDS011;7885;42.596;23.044;2022-10-31T08:12:39;11.05;;;7.38;;
15567;SDS011;7885;42.596;23.044;2022-10-31T08:15:06;14.35;;;7.47;;
15567;SDS011;7885;42.596;23.044;2022-10-31T08:17:34;11.32;;;7.60;;
15567;SDS011;7885;42.596;23.044;2022-10-31T08:20:02;11.43;;;7.15;;
15567;SDS011;7885;42.596;23.044;2022-10-31T08:22:29;6.50;;;5.90;;
15567;SDS011;7885;42.596;23.044;2022-10-31T08:24:56;14.23;;;6.70;;
15567;SDS011;7885;42.596;23.044;2022-10-31T08:27:24;10.95;;;7.00;;
15567;SDS011;7885;42.596;23.044;2022-10-31T08:29:50;10.98;;;7.53;;
15567;SDS011;7885;42.596;23.044;2022-10-31T08:32:20;10.27;;;7.20;;
15567;SDS011;7885;42.596;23.044;2022-10-31T08:34:47;12.23;;;8.25;;
15567;SDS011;7885;42.596;23.044;2022-10-31T08:37:14;10.13;;;6.32;;
15567;SDS011;7885;42.596;23.044;2022-10-31T08:39:44;9.75;;;5.90;;
15567;SDS011;7885;42.596;23.044;2022-10-31T08:42:12;8.80;;;6.00;;
15567;SDS011;7885;42.596;23.044;2022-10-31T08:44:40;8.38;;;5.32;;
15567;SDS011;7885;42.596;23.044;2022-10-31T08:47:07;9.10;;;5.38;;
15567;SDS011;7885;42.596;23.044;2022-10-31T08:49:33;7.43;;;5.05;;
15567;SDS011;7885;42.596;23.044;2022-10-31T08:52:00;5.93;;;5.32;;
15567;SDS011;7885;42.596;23.044;2022-10-31T08:54:27;7.13;;;5.20;;
15567;SDS011;7885;42.596;23.044;2022-10-31T08:56:54;6.72;;;4.90;;
15567;SDS011;7885;42.596;23.044;2022-10-31T08:59:21;8.70;;;5.43;;
15567;SDS011;7885;42.596;23.044;2022-10-31T09:01:49;9.38;;;5.07;;
15567;SDS011;7885;42.596;23.044;2022-10-31T09:04:16;5.40;;;4.90;;
15567;SDS011;7885;42.596;23.044;2022-10-31T09:06:43;8.18;;;5.40;;
15567;SDS011;7885;42.596;23.044;2022-10-31T09:09:10;5.78;;;4.90;;
15567;SDS011;7885;42.596;23.044;2022-10-31T09:11:36;7.70;;;5.85;;
15567;SDS011;7885;42.596;23.044;2022-10-31T09:14:03;8.55;;;5.40;;
15567;SDS011;7885;42.596;23.044;2022-10-31T09:16:30;8.07;;;5.35;;
15567;SDS011;7885;42.596;23.044;2022-10-31T09:18:59;6.82;;;4.85;;
15567;SDS011;7885;42.596;23.044;2022-10-31T09:21:25;6.85;;;4.90;;
15567;SDS011;7885;42.596;23.044;2022-10-31T09:23:52;7.57;;;4.88;;
15567;SDS011;7885;42.596;23.044;2022-10-31T09:26:19;9.32;;;5.45;;
15567;SDS011;7885;42.596;23.044;2022-10-31T09:28:46;7.88;;;4.70;;
15567;SDS011;7885;42.596;23.044;2022-10-31T09:31:13;6.47;;;4.65;;
15567;SDS011;7885;42.596;23.044;2022-10-31T09:33:40;8.00;;;4.63;;
15567;SDS011;7885;42.596;23.044;2022-10-31T09:36:08;5.05;;;4.07;;
15567;SDS011;7885;42.596;23.044;2022-10-31T09:42:00;5.40;;;3.75;;
15567;SDS011;7885;42.596;23.044;2022-10-31T09:44:39;7.47;;;4.00;;
15567;SDS011;7885;42.596;23.044;2022-10-31T09:47:14;6.25;;;3.53;;
15567;SDS011;7885;42.596;23.044;2022-10-31T09:49:58;7.07;;;3.00;;
15567;SDS011;7885;42.596;23.044;2022-10-31T09:52:35;5.57;;;2.92;;
15567;SDS011;7885;42.596;23.044;2022-10-31T09:55:08;5.70;;;2.88;;
15567;SDS011;7885;42.596;23.044;2022-10-31T09:57:42;4.95;;;3.00;;
15567;SDS011;7885;42.596;23.044;2022-10-31T10:00:14;6.43;;;3.50;;
15567;SDS011;7885;42.596;23.044;2022-10-31T10:02:44;7.68;;;3.45;;
15567;SDS011;7885;42.596;23.044;2022-10-31T10:05:17;8.02;;;4.00;;
15567;SDS011;7885;42.596;23.044;2022-10-31T10:07:49;5.30;;;3.42;;
15567;SDS011;7885;42.596;23.044;2022-10-31T10:10:23;5.93;;;3.22;;
15567;SDS011;7885;42.596;23.044;2022-10-31T10:13:11;7.75;;;3.30;;
15567;SDS011;7885;42.596;23.044;2022-10-31T10:16:06;5.85;;;3.50;;
15567;SDS011;7885;42.596;23.044;2022-10-31T10:18:47;5.55;;;3.22;;
15567;SDS011;7885;42.596;23.044;2022-10-31T10:21:30;4.20;;;3.40;;
15567;SDS011;7885;42.596;23.044;2022-10-31T10:24:12;5.75;;;3.20;;
15567;SDS011;7885;42.596;23.044;2022-10-31T10:26:50;5.00;;;3.30;;
15567;SDS011;7885;42.596;23.044;2022-10-31T10:29:34;7.72;;;3.90;;
15567;SDS011;7885;42.596;23.044;2022-10-31T10:32:08;5.38;;;3.78;;
15567;SDS011;7885;42.596;23.044;2022-10-31T10:34:42;4.32;;;3.38;;
15567;SDS011;7885;42.596;23.044;2022-10-31T10:37:16;6.47;;;3.60;;
15567;SDS011;7885;42.596;23.044;2022-10-31T10:39:52;6.45;;;3.42;;
15567;SDS011;7885;42.596;23.044;2022-10-31T10:42:21;12.48;;;4.05;;
15567;SDS011;7885;42.596;23.044;2022-10-31T10:45:13;6.47;;;3.38;;
15567;SDS011;7885;42.596;23.044;2022-10-31T10:48:02;5.90;;;3.70;;
15567;SDS011;7885;42.596;23.044;2022-10-31T10:50:35;8.27;;;4.07;;
15567;SDS011;7885;42.596;23.044;2022-10-31T10:53:07;9.07;;;3.47;;
15567;SDS011;7885;42.596;23.044;2022-10-31T10:55:49;6.10;;;3.58;;
15567;SDS011;7885;42.596;23.044;2022-10-31T10:58:19;6.07;;;3.55;;
15567;SDS011;7885;42.596;23.044;2022-10-31T11:00:46;4.72;;;3.17;;
15567;SDS011;7885;42.596;23.044;2022-10-31T11:03:15;13.55;;;3.72;;
15567;SDS011;7885;42.596;23.044;2022-10-31T11:05:44;5.57;;;3.08;;
15567;SDS011;7885;42.596;23.044;2022-10-31T11:08:22;7.43;;;3.30;;
15567;SDS011;7885;42.596;23.044;2022-10-31T11:10:57;5.93;;;3.47;;
15567;SDS011;7885;42.596;23.044;2022-10-31T11:13:25;6.20;;;3.08;;
15567;SDS011;7885;42.596;23.044;2022-10-31T11:15:57;7.90;;;3.60;;
15567;SDS011;7885;42.596;23.044;2022-10-31T11:18:27;10.98;;;3.78;;
15567;SDS011;7885;42.596;23.044;2022-10-31T11:20:56;6.15;;;3.30;;
15567;SDS011;7885;42.596;23.044;2022-10-31T11:23:25;15.40;;;3.63;;
15567;SDS011;7885;42.596;23.044;2022-10-31T11:25:54;7.30;;;3.60;;
15567;SDS011;7885;42.596;23.044;2022-10-31T11:28:24;5.57;;;3.15;;
15567;SDS011;7885;42.596;23.044;2022-10-31T11:30:52;10.23;;;3.40;;
15567;SDS011;7885;42.596;23.044;2022-10-31T11:33:23;8.65;;;3.45;;
15567;SDS011;7885;42.596;23.044;2022-10-31T11:35:54;5.07;;;3.22;;
15567;SDS011;7885;42.596;23.044;2022-10-31T11:38:22;7.18;;;3.20;;
15567;SDS011;7885;42.596;23.044;2022-10-31T11:40:57;7.10;;;3.08;;
15567;SDS011;7885;42.596;23.044;2022-10-31T11:43:26;6.07;;;3.22;;
15567;SDS011;7885;42.596;23.044;2022-10-31T11:45:53;9.48;;;2.92;;
15567;SDS011;7885;42.596;23.044;2022-10-31T11:48:21;6.22;;;2.88;;
15567;SDS011;7885;42.596;23.044;2022-10-31T11:50:50;5.82;;;3.10;;
15567;SDS011;7885;42.596;23.044;2022-10-31T11:53:20;9.23;;;3.10;;
15567;SDS011;7885;42.596;23.044;2022-10-31T11:56:01;6.38;;;3.10;;
15567;SDS011;7885;42.596;23.044;2022-10-31T11:58:36;35.97;;;4.93;;
15567;SDS011;7885;42.596;23.044;2022-10-31T12:01:03;8.38;;;3.00;;
15567;SDS011;7885;42.596;23.044;2022-10-31T12:03:50;7.30;;;3.38;;
15567;SDS011;7885;42.596;23.044;2022-10-31T12:06:22;7.22;;;3.50;;
15567;SDS011;7885;42.596;23.044;2022-10-31T12:08:52;7.07;;;2.90;;
15567;SDS011;7885;42.596;23.044;2022-10-31T12:11:27;18.20;;;3.10;;
15567;SDS011;7885;42.596;23.044;2022-10-31T12:14:04;6.47;;;3.20;;
15567;SDS011;7885;42.596;23.044;2022-10-31T12:16:41;11.05;;;3.33;;
15567;SDS011;7885;42.596;23.044;2022-10-31T12:19:15;8.80;;;3.40;;
15567;SDS011;7885;42.596;23.044;2022-10-31T12:22:08;7.75;;;3.30;;
15567;SDS011;7885;42.596;23.044;2022-10-31T12:24:47;13.55;;;3.47;;
15567;SDS011;7885;42.596;23.044;2022-10-31T12:27:31;7.90;;;3.00;;
15567;SDS011;7885;42.596;23.044;2022-10-31T12:30:12;9.38;;;3.10;;
15567;SDS011;7885;42.596;23.044;2022-10-31T12:32:50;9.63;;;3.30;;
15567;SDS011;7885;42.596;23.044;2022-10-31T12:35:35;12.93;;;3.40;;
15567;SDS011;7885;42.596;23.044;2022-10-31T12:38:12;9.13;;;3.35;;
15567;SDS011;7885;42.596;23.044;2022-10-31T12:40:52;8.48;;;3.65;;
15567;SDS011;7885;42.596;23.044;2022-10-31T12:43:39;9.55;;;4.40;;
15567;SDS011;7885;42.596;23.044;2022-10-31T12:46:14;12.43;;;3.67;;
15567;SDS011;7885;42.596;23.044;2022-10-31T12:48:57;9.57;;;3.15;;
15567;SDS011;7885;42.596;23.044;2022-10-31T12:51:40;9.13;;;3.20;;
15567;SDS011;7885;42.596;23.044;2022-10-31T12:54:25;11.73;;;3.42;;
15567;SDS011;7885;42.596;23.044;2022-10-31T12:57:02;10.90;;;3.60;;
15567;SDS011;7885;42.596;23.044;2022-10-31T12:59:40;8.07;;;3.45;;
15567;SDS011;7885;42.596;23.044;2022-10-31T13:02:14;9.77;;;3.80;;
15567;SDS011;7885;42.596;23.044;2022-10-31T13:04:46;7.97;;;3.45;;
15567;SDS011;7885;42.596;23.044;2022-10-31T13:07:18;11.00;;;3.50;;
15567;SDS011;7885;42.596;23.044;2022-10-31T13:09:51;5.95;;;3.17;;
15567;SDS011;7885;42.596;23.044;2022-10-31T13:12:22;12.07;;;3.58;;
15567;SDS011;7885;42.596;23.044;2022-10-31T13:14:52;8.98;;;3.88;;
15567;SDS011;7885;42.596;23.044;2022-10-31T13:17:22;7.28;;;3.95;;
15567;SDS011;7885;42.596;23.044;2022-10-31T13:19:54;10.85;;;3.30;;
15567;SDS011;7885;42.596;23.044;2022-10-31T13:22:31;6.88;;;3.55;;
15567;SDS011;7885;42.596;23.044;2022-10-31T13:25:02;11.43;;;3.95;;
15567;SDS011;7885;42.596;23.044;2022-10-31T13:27:38;5.88;;;3.55;;
15567;SDS011;7885;42.596;23.044;2022-10-31T13:30:13;9.00;;;3.80;;
15567;SDS011;7885;42.596;23.044;2022-10-31T13:32:43;8.23;;;3.80;;
15567;SDS011;7885;42.596;23.044;2022-10-31T13:35:14;5.97;;;3.78;;
15567;SDS011;7885;42.596;23.044;2022-10-31T13:37:50;6.43;;;3.10;;
15567;SDS011;7885;42.596;23.044;2022-10-31T13:40:29;6.97;;;3.50;;
15567;SDS011;7885;42.596;23.044;2022-10-31T13:43:05;8.32;;;3.40;;
15567;SDS011;7885;42.596;23.044;2022-10-31T13:45:48;9.45;;;3.67;;
15567;SDS011;7885;42.596;23.044;2022-10-31T13:48:32;10.48;;;3.70;;
15567;SDS011;7885;42.596;23.044;2022-10-31T13:51:02;6.53;;;3.20;;
15567;SDS011;7885;42.596;23.044;2022-10-31T13:53:36;9.73;;;3.58;;
15567;SDS011;7885;42.596;23.044;2022-10-31T13:56:10;8.20;;;3.17;;
15567;SDS011;7885;42.596;23.044;2022-10-31T13:58:42;16.33;;;4.47;;
15567;SDS011;7885;42.596;23.044;2022-10-31T14:01:24;9.30;;;3.25;;
15567;SDS011;7885;42.596;23.044;2022-10-31T14:03:57;10.05;;;4.10;;
15567;SDS011;7885;42.596;23.044;2022-10-31T14:06:36;9.93;;;3.72;;
15567;SDS011;7885;42.596;23.044;2022-10-31T14:09:14;9.07;;;3.42;;
15567;SDS011;7885;42.596;23.044;2022-10-31T14:11:45;8.35;;;3.72;;
15567;SDS011;7885;42.596;23.044;2022-10-31T14:14:14;7.85;;;4.18;;
15567;SDS011;7885;42.596;23.044;2022-10-31T14:16:44;10.43;;;4.43;;
15567;SDS011;7885;42.596;23.044;2022-10-31T14:19:15;8.25;;;3.63;;
15567;SDS011;7885;42.596;23.044;2022-10-31T14:21:46;9.43;;;3.60;;
15567;SDS011;7885;42.596;23.044;2022-10-31T14:24:14;7.32;;;3.30;;
15567;SDS011;7885;42.596;23.044;2022-10-31T14:26:57;12.75;;;3.90;;
15567;SDS011;7885;42.596;23.044;2022-10-31T14:29:26;7.22;;;3.40;;
15567;SDS011;7885;42.596;23.044;2022-10-31T14:32:04;7.63;;;3.30;;
15567;SDS011;7885;42.596;23.044;2022-10-31T14:34:38;16.13;;;4.30;;
15567;SDS011;7885;42.596;23.044;2022-10-31T14:37:14;17.25;;;4.72;;
15567;SDS011;7885;42.596;23.044;2022-10-31T14:39:54;10.90;;;4.07;;
15567;SDS011;7885;42.596;23.044;2022-10-31T14:42:45;7.47;;;3.92;;
15567;SDS011;7885;42.596;23.044;2022-10-31T14:45:24;11.07;;;5.07;;
15567;SDS011;7885;42.596;23.044;2022-10-31T14:48:03;9.20;;;4.57;;
15567;SDS011;7885;42.596;23.044;2022-10-31T14:50:41;8.40;;;4.45;;
15567;SDS011;7885;42.596;23.044;2022-10-31T14:53:13;9.20;;;4.45;;
15567;SDS011;7885;42.596;23.044;2022-10-31T14:55:45;12.25;;;3.97;;
15567;SDS011;7885;42.596;23.044;2022-10-31T14:58:15;10.13;;;3.80;;
15567;SDS011;7885;42.596;23.044;2022-10-31T15:00:46;13.95;;;4.15;;
15567;SDS011;7885;42.596;23.044;2022-10-31T15:03:21;9.45;;;4.00;;
15567;SDS011;7885;42.596;23.044;2022-10-31T15:05:52;12.45;;;5.25;;
15567;SDS011;7885;42.596;23.044;2022-10-31T15:08:29;11.95;;;4.68;;
15567;SDS011;7885;42.596;23.044;2022-10-31T15:11:02;11.35;;;4.57;;
15567;SDS011;7885;42.596;23.044;2022-10-31T15:13:30;11.47;;;4.73;;
15567;SDS011;7885;42.596;23.044;2022-10-31T15:15:56;14.27;;;5.53;;
15567;SDS011;7885;42.596;23.044;2022-10-31T15:18:26;17.70;;;6.20;;
15567;SDS011;7885;42.596;23.044;2022-10-31T15:24:16;13.53;;;6.20;;